createdAt,value
2019-05-28T00:02:02.181Z,82.70
2019-05-28T00:04:31.087Z,82.40
2019-05-28T00:06:59.931Z,82.50
2019-05-28T00:09:28.850Z,82.60
2019-05-28T00:11:57.724Z,82.50
2019-05-28T00:14:26.562Z,82.40
2019-05-28T00:16:55.544Z,82.50
2019-05-28T00:19:24.430Z,82.50
2019-05-28T00:21:53.317Z,82.50
2019-05-28T00:24:22.234Z,82.10
2019-05-28T00:26:51.140Z,81.90
2019-05-28T00:29:20.036Z,81.70
2019-05-28T00:31:48.960Z,81.60
2019-05-28T00:34:17.837Z,81.40
2019-05-28T00:36:46.725Z,81.60
2019-05-28T00:39:15.611Z,81.50
2019-05-28T00:41:44.546Z,81.70
2019-05-28T00:44:13.391Z,82.10
2019-05-28T00:46:42.314Z,81.40
2019-05-28T00:49:11.193Z,81.20
2019-05-28T00:51:40.789Z,81.30
2019-05-28T00:54:09.677Z,81.30
2019-05-28T00:56:38.856Z,81.30
2019-05-28T00:59:08.461Z,81.50
2019-05-28T01:01:37.350Z,81.50
2019-05-28T01:04:06.230Z,81.60
2019-05-28T01:06:35.180Z,81.70
2019-05-28T01:09:05.856Z,81.90
2019-05-28T01:11:34.739Z,82.00
2019-05-28T01:14:03.767Z,82.00
2019-05-28T01:16:32.642Z,82.20
2019-05-28T01:19:01.607Z,82.10
2019-05-28T01:21:30.494Z,82.20
2019-05-28T01:23:59.420Z,82.20
2019-05-28T01:26:28.327Z,82.40
2019-05-28T01:28:57.204Z,82.50
2019-05-28T01:31:26.130Z,82.40
2019-05-28T01:33:55.048Z,82.30
2019-05-28T01:36:23.965Z,82.40
2019-05-28T01:38:52.818Z,82.30
2019-05-28T01:41:21.770Z,82.10
2019-05-28T01:43:50.704Z,82.20
2019-05-28T01:46:19.542Z,82.10
2019-05-28T01:48:48.536Z,82.20
2019-05-28T01:51:17.384Z,82.30
2019-05-28T01:53:46.264Z,82.20
2019-05-28T01:56:15.219Z,82.00
2019-05-28T01:58:44.096Z,83.10
2019-05-28T02:01:13.514Z,82.50
2019-05-28T02:03:42.639Z,82.60
2019-05-28T02:06:11.532Z,82.40
2019-05-28T02:08:40.424Z,82.70
2019-05-28T02:11:09.394Z,82.90
2019-05-28T02:13:38.276Z,83.10
2019-05-28T02:16:07.160Z,83.10
2019-05-28T02:18:36.123Z,83.20
2019-05-28T02:21:05.025Z,83.20
2019-05-28T02:23:33.821Z,82.90
2019-05-28T02:26:02.708Z,83.00
2019-05-28T02:28:31.587Z,82.90
2019-05-28T02:31:00.505Z,82.90
2019-05-28T02:33:29.377Z,83.00
2019-05-28T02:35:58.271Z,82.90
2019-05-28T02:38:27.229Z,83.10
2019-05-28T02:40:56.648Z,83.00
2019-05-28T02:43:25.520Z,83.20
2019-05-28T02:45:54.389Z,83.20
2019-05-28T02:48:23.267Z,83.10
2019-05-28T02:50:57.733Z,83.20
2019-05-28T02:53:26.974Z,83.30
2019-05-28T02:55:57.104Z,83.50
2019-05-28T02:58:28.895Z,83.40
2019-05-28T03:00:59.065Z,83.60
2019-05-28T03:03:31.014Z,83.80
2019-05-28T03:06:00.383Z,84.00
2019-05-28T03:08:32.759Z,84.10
2019-05-28T03:11:04.164Z,84.10
2019-05-28T03:13:33.037Z,83.80
2019-05-28T03:16:04.163Z,83.60
2019-05-28T03:18:35.958Z,83.50
2019-05-28T03:21:06.200Z,83.40
2019-05-28T03:23:36.187Z,83.10
2019-05-28T03:26:05.229Z,83.10
2019-05-28T03:28:34.119Z,83.20
2019-05-28T03:31:03.004Z,83.20
2019-05-28T03:33:31.930Z,84.00
2019-05-28T03:36:03.116Z,83.20
2019-05-28T03:38:33.209Z,83.20
2019-05-28T03:41:02.145Z,83.20
2019-05-28T03:43:31.078Z,83.40
2019-05-28T03:45:59.901Z,83.70
2019-05-28T03:48:28.767Z,83.80
2019-05-28T03:50:57.706Z,83.70
2019-05-28T03:53:26.592Z,83.70
2019-05-28T03:55:55.462Z,83.50
2019-05-28T03:58:24.457Z,83.50
2019-05-28T04:00:53.308Z,83.20
2019-05-28T04:03:22.235Z,82.90
2019-05-28T04:05:51.156Z,83.00
2019-05-28T04:08:20.072Z,82.70
2019-05-28T04:10:48.906Z,82.40
2019-05-28T04:13:17.863Z,82.30
2019-05-28T04:15:46.725Z,82.30
2019-05-28T04:18:15.597Z,82.20
2019-05-28T04:20:44.544Z,82.20
2019-05-28T04:23:17.281Z,82.40
2019-05-28T04:25:47.282Z,82.60
2019-05-28T04:28:16.229Z,82.10
2019-05-28T04:30:45.142Z,81.90
2019-05-28T04:33:14.063Z,81.60
2019-05-28T04:35:43.134Z,81.40
2019-05-28T04:38:12.007Z,81.40
2019-05-28T04:40:40.942Z,81.20
2019-05-28T04:43:09.866Z,81.20
2019-05-28T04:45:39.127Z,81.10
2019-05-28T04:48:10.411Z,80.90
2019-05-28T04:50:38.869Z,80.90
2019-05-28T04:53:07.821Z,80.80
2019-05-28T04:55:36.764Z,80.90
2019-05-28T04:58:05.695Z,81.10
2019-05-28T05:00:34.607Z,80.50
2019-05-28T05:03:03.496Z,80.80
2019-05-28T05:05:32.465Z,80.60
2019-05-28T05:08:01.412Z,80.50
2019-05-28T05:10:30.256Z,80.50
2019-05-28T05:12:59.274Z,79.80
2019-05-28T05:15:28.171Z,79.50
2019-05-28T05:17:57.116Z,79.50
2019-05-28T05:20:26.066Z,79.50
2019-05-28T05:22:54.997Z,78.90
2019-05-28T05:25:23.878Z,78.80
2019-05-28T05:27:52.813Z,78.80
2019-05-28T05:30:21.687Z,78.50
2019-05-28T05:32:50.697Z,78.30
2019-05-28T05:35:19.603Z,78.20
2019-05-28T05:37:48.499Z,77.90
2019-05-28T05:40:17.592Z,77.80
2019-05-28T05:42:46.440Z,77.30
2019-05-28T05:45:15.574Z,78.00
2019-05-28T05:47:44.495Z,77.20
2019-05-28T05:50:13.589Z,77.80
2019-05-28T05:52:42.470Z,77.10
2019-05-28T05:55:11.936Z,77.10
2019-05-28T05:57:40.826Z,77.10
2019-05-28T06:00:11.691Z,77.10
2019-05-28T06:02:40.864Z,76.90
2019-05-28T06:05:09.748Z,76.70
2019-05-28T06:07:38.843Z,76.30
2019-05-28T06:10:08.166Z,75.90
2019-05-28T06:12:37.073Z,76.20
2019-05-28T06:15:06.985Z,75.80
2019-05-28T06:17:35.949Z,75.40
2019-05-28T06:20:09.111Z,74.60
2019-05-28T06:22:38.037Z,74.30
2019-05-28T06:25:08.026Z,73.10
2019-05-28T06:27:36.963Z,72.90
2019-05-28T06:30:09.111Z,72.70
2019-05-28T06:32:38.741Z,72.80
2019-05-28T06:35:08.150Z,72.80
2019-05-28T06:37:37.126Z,71.60
2019-05-28T06:40:08.121Z,71.30
2019-05-28T06:42:39.732Z,71.60
2019-05-28T06:45:08.283Z,71.80
2019-05-28T06:47:37.191Z,72.50
2019-05-28T06:50:12.947Z,72.90
2019-05-28T06:52:41.951Z,72.10
2019-05-28T06:55:10.904Z,71.60
2019-05-28T06:57:39.886Z,71.10
2019-05-28T07:00:09.142Z,70.30
2019-05-28T07:02:37.992Z,70.50
2019-05-28T07:05:07.473Z,70.00
2019-05-28T07:07:36.373Z,68.80
2019-05-28T07:10:09.494Z,68.20
2019-05-28T07:12:38.400Z,67.90
2019-05-28T07:15:07.594Z,67.90
2019-05-28T07:17:36.542Z,67.00
2019-05-28T07:20:08.636Z,65.80
2019-05-28T07:22:37.573Z,64.90
2019-05-28T07:25:07.645Z,64.20
2019-05-28T07:27:36.505Z,62.90
2019-05-28T07:30:08.616Z,63.00
2019-05-28T07:32:37.563Z,62.80
2019-05-28T07:35:07.990Z,62.50
2019-05-28T07:37:36.824Z,63.40
2019-05-28T07:40:07.489Z,64.20
2019-05-28T07:42:36.387Z,63.80
2019-05-28T07:45:07.010Z,63.20
2019-05-28T07:47:35.926Z,62.30
2019-05-28T07:50:06.524Z,61.60
2019-05-28T07:52:35.466Z,61.00
2019-05-28T07:55:04.756Z,60.20
2019-05-28T07:57:33.657Z,59.80
2019-05-28T08:00:05.506Z,59.40
2019-05-28T08:02:33.262Z,58.80
2019-05-28T08:05:02.171Z,58.50
2019-05-28T08:07:31.094Z,58.70
2019-05-28T08:10:00.037Z,58.80
2019-05-28T08:12:28.982Z,58.90
2019-05-28T08:14:57.876Z,58.30
2019-05-28T08:17:26.796Z,58.00
2019-05-28T08:19:55.745Z,57.60
2019-05-28T08:22:38.737Z,57.40
2019-05-28T08:24:55.285Z,57.60
2019-05-28T08:27:24.258Z,57.20
2019-05-28T08:29:53.101Z,57.40
2019-05-28T08:32:22.015Z,57.80
2019-05-28T08:35:05.075Z,57.60
2019-05-28T08:37:21.470Z,57.40
2019-05-28T08:39:51.957Z,57.80
2019-05-28T08:42:21.124Z,57.40
2019-05-28T08:44:50.094Z,56.80
2019-05-28T08:47:19.082Z,57.00
2019-05-28T08:49:48.042Z,56.90
2019-05-28T08:52:16.966Z,56.60
2019-05-28T08:54:45.885Z,56.50
2019-05-28T08:57:14.801Z,56.50
2019-05-28T08:59:43.738Z,56.40
2019-05-28T09:02:27.036Z,56.00
2019-05-28T09:04:43.233Z,56.30
2019-05-28T09:07:12.182Z,56.70
2019-05-28T09:09:40.987Z,56.30
2019-05-28T09:12:09.961Z,55.70
2019-05-28T09:14:55.063Z,55.60
2019-05-28T09:17:09.418Z,55.20
2019-05-28T09:19:38.343Z,54.40
2019-05-28T09:22:07.260Z,53.80
2019-05-28T09:24:36.112Z,53.90
2019-05-28T09:27:05.074Z,54.30
2019-05-28T09:29:34.003Z,54.60
2019-05-28T09:32:02.819Z,55.30
2019-05-28T09:34:31.812Z,55.50
2019-05-28T09:37:00.658Z,55.40
2019-05-28T09:39:29.597Z,55.20
2019-05-28T09:41:58.571Z,55.20
2019-05-28T09:44:27.415Z,54.40
2019-05-28T09:46:56.384Z,54.30
2019-05-28T09:49:25.310Z,53.80
2019-05-28T09:51:54.209Z,54.70
2019-05-28T09:54:23.139Z,54.20
2019-05-28T09:56:52.123Z,54.20
2019-05-28T09:59:21.290Z,54.50
2019-05-28T10:01:50.361Z,53.60
2019-05-28T10:04:19.289Z,52.70
2019-05-28T10:06:48.221Z,52.40
2019-05-28T10:09:17.072Z,52.10
2019-05-28T10:11:47.044Z,52.50
2019-05-28T10:14:15.925Z,52.20
2019-05-28T10:16:44.808Z,51.80
2019-05-28T10:19:33.081Z,52.10
2019-05-28T10:22:01.945Z,50.50
2019-05-28T10:24:30.827Z,51.70
2019-05-28T10:26:59.782Z,52.30
2019-05-28T10:29:28.694Z,52.40
2019-05-28T10:31:57.612Z,52.60
2019-05-28T10:34:26.540Z,52.40
2019-05-28T10:36:56.233Z,52.80
2019-05-28T10:39:25.336Z,53.30
2019-05-28T10:41:54.213Z,53.90
2019-05-28T10:44:23.100Z,54.10
2019-05-28T10:46:52.661Z,54.10
2019-05-28T10:49:21.509Z,54.20
2019-05-28T10:51:50.446Z,54.30
2019-05-28T10:54:19.413Z,54.90
2019-05-28T10:56:48.259Z,54.80
2019-05-28T10:59:17.186Z,55.10
2019-05-28T11:01:46.134Z,55.20
2019-05-28T11:04:14.982Z,54.10
2019-05-28T11:06:51.960Z,53.40
2019-05-28T11:09:14.549Z,53.30
2019-05-28T11:11:43.468Z,53.80
2019-05-28T11:14:12.293Z,53.30
2019-05-28T11:16:41.181Z,53.00
2019-05-28T11:19:10.073Z,53.00
2019-05-28T11:21:39.023Z,53.20
2019-05-28T11:24:07.902Z,53.10
2019-05-28T11:26:36.795Z,53.10
2019-05-28T11:29:05.865Z,53.50
2019-05-28T11:31:34.717Z,53.40
2019-05-28T11:34:03.632Z,53.70
2019-05-28T11:36:32.550Z,54.40
2019-05-28T11:39:01.481Z,53.70
2019-05-28T11:41:41.314Z,53.70
2019-05-28T11:44:00.905Z,52.80
2019-05-28T11:46:29.797Z,52.20
2019-05-28T11:48:58.749Z,51.40
2019-05-28T11:51:27.705Z,51.60
2019-05-28T11:53:56.564Z,51.90
2019-05-28T11:56:25.566Z,51.30
2019-05-28T11:58:54.415Z,51.50
2019-05-28T12:01:33.608Z,51.50
2019-05-28T12:03:54.037Z,51.00
2019-05-28T12:06:23.173Z,50.00
2019-05-28T12:08:52.102Z,50.10
2019-05-28T12:11:20.976Z,50.20
2019-05-28T12:13:49.849Z,50.40
2019-05-28T12:16:18.789Z,49.30
2019-05-28T12:18:47.710Z,48.90
2019-05-28T12:21:16.619Z,49.30
2019-05-28T12:23:45.490Z,49.00
2019-05-28T12:26:14.433Z,49.40
2019-05-28T12:28:43.343Z,49.50
2019-05-28T12:31:12.222Z,49.50
2019-05-28T12:33:41.140Z,48.70
2019-05-28T12:36:10.515Z,48.60
2019-05-28T12:38:39.451Z,48.20
2019-05-28T12:41:08.333Z,47.60
2019-05-28T12:43:37.216Z,47.20
2019-05-28T12:46:06.059Z,47.70
2019-05-28T12:48:35.023Z,48.10
2019-05-28T12:51:03.858Z,47.80
2019-05-28T12:53:49.313Z,47.50
2019-05-28T12:56:03.354Z,48.00
2019-05-28T12:58:42.571Z,47.90
2019-05-28T13:01:02.913Z,47.80
2019-05-28T13:03:31.923Z,48.50
2019-05-28T13:06:00.849Z,48.00
2019-05-28T13:08:29.768Z,48.10
2019-05-28T13:10:58.743Z,48.60
2019-05-28T13:13:27.586Z,49.00
2019-05-28T13:15:56.526Z,47.70
2019-05-28T13:18:25.469Z,47.80
2019-05-28T13:20:54.418Z,48.00
2019-05-28T13:23:23.302Z,48.50
2019-05-28T13:25:53.154Z,48.60
2019-05-28T13:28:21.960Z,48.60
2019-05-28T13:30:50.842Z,48.90
2019-05-28T13:33:19.755Z,48.90
2019-05-28T13:35:48.783Z,48.90
2019-05-28T13:38:26.923Z,49.60
2019-05-28T13:40:48.299Z,49.80
2019-05-28T13:43:17.186Z,49.40
2019-05-28T13:45:46.185Z,49.20
2019-05-28T13:48:15.024Z,50.30
2019-05-28T13:50:44.125Z,50.30
2019-05-28T13:53:13.070Z,50.40
2019-05-28T13:55:41.949Z,50.50
2019-05-28T13:58:10.915Z,50.10
2019-05-28T14:00:39.844Z,49.60
2019-05-28T14:03:08.795Z,49.50
2019-05-28T14:05:37.673Z,49.50
2019-05-28T14:08:06.604Z,49.10
2019-05-28T14:10:35.570Z,49.20
2019-05-28T14:13:04.419Z,49.60
2019-05-28T14:15:33.378Z,49.80
2019-05-28T14:18:02.366Z,49.40
2019-05-28T14:20:31.380Z,49.10
2019-05-28T14:23:00.316Z,49.20
2019-05-28T14:25:29.258Z,49.70
2019-05-28T14:27:58.139Z,48.90
2019-05-28T14:30:27.414Z,48.70
2019-05-28T14:32:56.368Z,48.50
2019-05-28T14:35:25.259Z,48.70
2019-05-28T14:37:54.195Z,48.30
2019-05-28T14:40:24.877Z,48.60
2019-05-28T14:42:53.816Z,48.80
2019-05-28T14:45:24.016Z,48.70
2019-05-28T14:47:53.335Z,48.40
2019-05-28T14:50:22.241Z,48.20
2019-05-28T14:52:51.211Z,48.60
2019-05-28T14:55:20.213Z,48.40
2019-05-28T14:57:49.152Z,48.60
2019-05-28T15:00:21.639Z,48.70
2019-05-28T15:02:50.589Z,48.30
2019-05-28T15:05:19.498Z,48.40
2019-05-28T15:07:48.428Z,48.80
2019-05-28T15:10:18.344Z,48.30
2019-05-28T15:12:47.258Z,48.40
2019-05-28T15:15:34.610Z,49.00
2019-05-28T15:17:48.462Z,48.90
2019-05-28T15:20:18.970Z,48.50
2019-05-28T15:22:47.972Z,48.50
2019-05-28T15:25:16.981Z,49.00
2019-05-28T15:27:45.870Z,49.80
2019-05-28T15:30:35.476Z,50.40
2019-05-28T15:33:04.484Z,50.60
2019-05-28T15:35:33.378Z,49.50
2019-05-28T15:38:02.391Z,49.10
2019-05-28T15:40:31.255Z,49.00
2019-05-28T15:43:06.284Z,49.10
2019-05-28T15:45:30.815Z,49.30
2019-05-28T15:47:59.678Z,49.30
2019-05-28T15:50:28.639Z,49.80
2019-05-28T15:52:58.900Z,48.40
2019-05-28T15:55:28.111Z,48.20
2019-05-28T15:57:57.048Z,48.70
2019-05-28T16:00:26.072Z,49.10
2019-05-28T16:02:55.003Z,49.50
2019-05-28T16:05:23.969Z,49.40
2019-05-28T16:07:52.830Z,49.50
2019-05-28T16:10:21.874Z,48.60
2019-05-28T16:12:50.853Z,48.30
2019-05-28T16:15:19.904Z,48.50
2019-05-28T16:17:48.838Z,49.10
2019-05-28T16:20:18.055Z,48.60
2019-05-28T16:22:46.940Z,48.60
2019-05-28T16:25:16.541Z,48.20
2019-05-28T16:27:45.493Z,48.00
2019-05-28T16:30:16.020Z,46.90
2019-05-28T16:32:45.038Z,47.70
2019-05-28T16:35:16.400Z,48.40
2019-05-28T16:37:45.307Z,48.00
2019-05-28T16:40:16.248Z,47.70
2019-05-28T16:42:45.740Z,48.30
2019-05-28T16:45:15.508Z,49.30
2019-05-28T16:47:44.516Z,48.80
2019-05-28T16:50:14.129Z,48.50
2019-05-28T16:52:43.019Z,48.20
2019-05-28T16:55:12.293Z,47.90
2019-05-28T16:57:41.167Z,48.20
2019-05-28T17:00:10.456Z,48.90
2019-05-28T17:02:39.484Z,49.50
2019-05-28T17:05:09.030Z,49.50
2019-05-28T17:07:37.931Z,49.50
2019-05-28T17:10:08.370Z,49.90
2019-05-28T17:12:37.378Z,50.20
2019-05-28T17:15:08.054Z,49.80
2019-05-28T17:17:36.986Z,49.90
2019-05-28T17:20:10.692Z,49.30
2019-05-28T17:22:39.639Z,49.30
2019-05-28T17:25:11.675Z,49.20
2019-05-28T17:27:39.217Z,49.00
2019-05-28T17:30:18.975Z,48.50
2019-05-28T17:32:39.527Z,48.90
2019-05-28T17:35:08.971Z,49.10
2019-05-28T17:37:38.007Z,48.50
2019-05-28T17:40:07.965Z,48.90
2019-05-28T17:42:36.858Z,48.80
2019-05-28T17:45:07.725Z,48.50
2019-05-28T17:47:43.370Z,48.70
2019-05-28T17:50:07.334Z,48.80
2019-05-28T17:52:36.464Z,49.70
2019-05-28T17:55:06.946Z,50.20
2019-05-28T17:57:35.943Z,50.00
2019-05-28T18:00:07.260Z,49.50
2019-05-28T18:02:36.168Z,50.00
2019-05-28T18:05:07.138Z,49.80
2019-05-28T18:07:36.150Z,48.50
2019-05-28T18:10:11.855Z,48.00
2019-05-28T18:12:40.827Z,48.50
2019-05-28T18:15:09.984Z,47.30
2019-05-28T18:17:38.882Z,46.50
2019-05-28T18:20:09.824Z,45.20
2019-05-28T18:22:38.718Z,44.10
2019-05-28T18:25:08.578Z,43.20
2019-05-28T18:27:37.452Z,43.20
2019-05-28T18:30:08.009Z,42.70
2019-05-28T18:32:37.313Z,42.00
2019-05-28T18:35:09.471Z,42.00
2019-05-28T18:37:38.404Z,41.80
2019-05-28T18:40:10.250Z,42.40
2019-05-28T18:42:39.138Z,43.20
2019-05-28T18:45:09.331Z,43.60
2019-05-28T18:47:40.118Z,44.50
2019-05-28T18:50:10.265Z,45.00
2019-05-28T18:52:39.152Z,45.50
2019-05-28T18:55:08.615Z,46.90
2019-05-28T18:57:37.608Z,46.50
2019-05-28T19:00:08.767Z,46.70
2019-05-28T19:02:37.898Z,47.30
2019-05-28T19:05:07.913Z,47.60
2019-05-28T19:07:36.869Z,48.20
2019-05-28T19:10:09.067Z,48.70
2019-05-28T19:12:37.967Z,49.30
2019-05-28T19:15:07.880Z,49.90
2019-05-28T19:17:36.722Z,50.30
2019-05-28T19:20:09.855Z,50.60
2019-05-28T19:22:38.908Z,51.00
2019-05-28T19:25:12.494Z,51.40
2019-05-28T19:27:41.341Z,52.00
2019-05-28T19:30:11.419Z,52.20
2019-05-28T19:32:40.345Z,52.60
2019-05-28T19:35:10.526Z,52.90
2019-05-28T19:37:39.493Z,53.50
2019-05-28T19:40:08.554Z,53.70
2019-05-28T19:42:37.407Z,54.00
2019-05-28T19:45:07.640Z,54.50
2019-05-28T19:47:36.562Z,54.80
2019-05-28T19:50:08.937Z,55.20
2019-05-28T19:52:37.934Z,55.60
2019-05-28T19:55:07.114Z,55.80
2019-05-28T19:57:35.984Z,56.30
2019-05-28T20:00:06.797Z,56.60
2019-05-28T20:02:35.677Z,56.90
2019-05-28T20:05:06.918Z,57.10
2019-05-28T20:07:35.807Z,57.40
2019-05-28T20:10:08.918Z,57.50
2019-05-28T20:12:37.865Z,57.70
2019-05-28T20:15:11.011Z,57.80
2019-05-28T20:17:40.016Z,58.10
2019-05-28T20:20:10.587Z,58.20
2019-05-28T20:22:39.425Z,58.50
2019-05-28T20:25:09.371Z,58.50
2019-05-28T20:27:38.254Z,58.50
2019-05-28T20:30:09.324Z,58.60
2019-05-28T20:32:38.466Z,58.90
2019-05-28T20:35:10.905Z,59.50
2019-05-28T20:37:40.059Z,59.60
2019-05-28T20:40:10.266Z,59.70
2019-05-28T20:42:39.362Z,60.20
2019-05-28T20:45:12.218Z,60.60
2019-05-28T20:47:41.117Z,60.60
2019-05-28T20:50:11.507Z,60.90
2019-05-28T20:52:40.736Z,61.00
2019-05-28T20:55:10.389Z,61.10
2019-05-28T20:57:39.304Z,61.30
2019-05-28T21:00:10.208Z,61.40
2019-05-28T21:02:39.046Z,61.80
2019-05-28T21:05:09.213Z,61.80
2019-05-28T21:07:38.153Z,62.20
2019-05-28T21:10:08.841Z,62.10
2019-05-28T21:12:43.660Z,62.50
2019-05-28T21:15:09.401Z,62.60
2019-05-28T21:17:38.239Z,62.80
2019-05-28T21:20:08.418Z,62.90
2019-05-28T21:22:37.320Z,62.90
2019-05-28T21:25:09.283Z,63.10
2019-05-28T21:27:38.166Z,63.40
2019-05-28T21:30:08.163Z,63.50
2019-05-28T21:32:36.997Z,63.80
2019-05-28T21:35:06.584Z,64.10
2019-05-28T21:37:35.525Z,64.40
2019-05-28T21:40:07.728Z,64.40
2019-05-28T21:42:36.709Z,64.80
2019-05-28T21:45:07.172Z,65.00
2019-05-28T21:47:36.045Z,65.20
2019-05-28T21:50:07.894Z,65.20
2019-05-28T21:52:36.829Z,65.90
2019-05-28T21:55:09.520Z,65.80
2019-05-28T21:57:38.478Z,66.10
2019-05-28T22:00:14.640Z,66.10
2019-05-28T22:02:43.520Z,66.30
2019-05-28T22:05:12.787Z,66.20
2019-05-28T22:07:41.702Z,66.40
2019-05-28T22:10:10.594Z,66.90
2019-05-28T22:12:39.825Z,67.50
2019-05-28T22:15:09.043Z,67.40
2019-05-28T22:17:37.947Z,67.60
2019-05-28T22:20:08.568Z,68.00
2019-05-28T22:22:37.708Z,68.40
2019-05-28T22:25:09.793Z,68.30
2019-05-28T22:27:38.672Z,68.70
2019-05-28T22:30:09.010Z,68.80
2019-05-28T22:32:38.008Z,69.10
2019-05-28T22:35:08.237Z,69.40
2019-05-28T22:37:37.216Z,69.50
2019-05-28T22:40:08.071Z,69.50
2019-05-28T22:42:36.942Z,69.70
2019-05-28T22:45:08.991Z,69.90
2019-05-28T22:47:37.870Z,70.20
2019-05-28T22:50:19.629Z,70.30
2019-05-28T22:52:39.401Z,70.50
2019-05-28T22:55:08.754Z,70.50
2019-05-28T22:57:37.692Z,70.80
2019-05-28T23:00:08.801Z,71.00
2019-05-28T23:02:37.739Z,71.10
2019-05-28T23:05:09.210Z,71.30
2019-05-28T23:07:37.357Z,71.30
2019-05-28T23:10:07.925Z,71.00
2019-05-28T23:12:37.055Z,70.50
2019-05-28T23:15:10.767Z,70.60
2019-05-28T23:17:39.708Z,70.80
2019-05-28T23:20:12.003Z,70.10
2019-05-28T23:22:40.892Z,69.60
2019-05-28T23:25:11.566Z,69.10
2019-05-28T23:27:40.627Z,68.40
2019-05-28T23:30:21.530Z,67.80
2019-05-28T23:32:40.904Z,66.80
2019-05-28T23:35:10.709Z,66.50
2019-05-28T23:37:39.701Z,65.90
2019-05-28T23:40:11.334Z,65.70
2019-05-28T23:42:40.330Z,65.50
2019-05-28T23:45:09.983Z,65.20
2019-05-28T23:47:39.004Z,64.80
2019-05-28T23:50:09.528Z,64.90
2019-05-28T23:52:38.977Z,64.70
2019-05-28T23:55:07.988Z,64.60
2019-05-28T23:57:36.863Z,64.30
